Time;durP1;ratioP1;P1;durP2;ratioP2;P2;SDS_P1;SDS_P2;PMS_P1;PMS_P2;Temp;Humidity;BMP_temperature;BMP_pressure;BME280_temperature;BME280_humidity;BME280_pressure;Samples;Min_cycle;Max_cycle;Signal;HPM_P1;HPM_P2
2022/04/24 00:01:53;;;;;;;;;13.25;11.50;;;;;17.01;49.34;99190.53;5015116;28;45376;-55
2022/04/24 00:04:19;;;;;;;;;12.50;12.50;;;;;17.01;49.24;99187.75;5015220;28;45398;-55
2022/04/24 00:06:46;;;;;;;;;15.50;13.00;;;;;16.87;49.13;99162.69;5013590;28;46339;-55
2022/04/24 00:09:14;;;;;;;;;12.20;12.20;;;;;17.04;49.42;99189.16;5014897;28;45322;-53
2022/04/24 00:11:40;;;;;;;;;13.20;13.20;;;;;16.97;49.33;99181.16;5014637;28;45407;-53
2022/04/24 00:14:09;;;;;;;;;15.00;15.00;;;;;16.91;49.40;99185.94;5015145;28;45305;-53
2022/04/24 00:16:35;;;;;;;;;13.00;13.00;;;;;16.85;49.73;99186.28;5014460;28;46891;-53
2022/04/24 00:19:01;;;;;;;;;20.40;14.80;;;;;16.73;49.68;99181.09;5014889;28;45746;-52
2022/04/24 00:21:26;;;;;;;;;11.00;10.75;;;;;16.67;50.12;99195.00;4999715;28;45425;-53
2022/04/24 00:23:52;;;;;;;;;15.25;12.75;;;;;16.45;49.90;99158.66;5030499;28;45313;-55
2022/04/24 00:26:17;;;;;;;;;18.75;18.75;;;;;16.66;49.85;99182.28;5037826;28;46309;-53
2022/04/24 00:28:43;;;;;;;;;11.75;11.75;;;;;16.62;50.29;99181.22;5037885;28;45297;-54
2022/04/24 00:31:08;;;;;;;;;16.75;15.75;;;;;16.43;49.91;99158.94;5038441;28;45325;-55
2022/04/24 00:33:34;;;;;;;;;13.00;12.00;;;;;16.59;49.94;99175.44;5038242;28;45325;-51
2022/04/24 00:35:59;;;;;;;;;14.50;14.50;;;;;16.52;50.19;99168.28;5036418;28;46479;-55
2022/04/24 00:38:25;;;;;;;;;21.00;19.25;;;;;16.52;50.83;99178.53;5037709;28;45459;-55
2022/04/24 00:40:52;;;;;;;;;18.00;16.75;;;;;16.42;51.14;99173.91;5037714;28;45357;-54
2022/04/24 00:43:18;;;;;;;;;15.00;11.80;;;;;16.02;51.06;99123.28;5035890;28;45681;-53
2022/04/24 00:45:44;;;;;;;;;14.60;14.60;;;;;16.34;51.29;99171.75;5016575;28;47261;-55
2022/04/24 00:48:09;;;;;;;;;13.00;13.00;;;;;16.16;51.56;99148.38;5017584;28;45404;-52
2022/04/24 00:50:35;;;;;;;;;14.00;13.50;;;;;16.32;51.42;99166.50;5017776;28;45369;-52
2022/04/24 00:53:01;;;;;;;;;18.25;16.25;;;;;16.24;51.78;99165.16;5016562;28;45338;-55
2022/04/24 00:55:26;;;;;;;;;16.25;14.25;;;;;16.16;51.83;99171.31;5017745;28;45988;-52
2022/04/24 00:57:51;;;;;;;;;16.75;16.00;;;;;16.09;51.09;99146.75;5015972;28;45409;-51
2022/04/24 01:00:17;;;;;;;;;14.50;14.50;;;;;16.19;51.92;99175.47;5017985;28;45472;-54
2022/04/24 01:02:43;;;;;;;;;18.25;17.25;;;;;15.61;52.53;99108.59;5017735;28;45220;-51
2022/04/24 01:05:08;;;;;;;;;17.00;17.00;;;;;15.92;52.75;99183.13;5017433;28;45865;-54
2022/04/24 01:07:34;;;;;;;;;16.25;16.25;;;;;15.79;53.21;99186.50;5017538;28;45343;-53
2022/04/24 01:10:00;;;;;;;;;22.75;22.75;;;;;15.71;53.27;99198.97;5017603;28;45299;-54
2022/04/24 01:12:25;;;;;;;;;14.50;14.50;;;;;15.64;53.42;99199.25;5017504;28;45394;-51
2022/04/24 01:14:51;;;;;;;;;16.75;16.75;;;;;15.63;53.07;99181.03;5015927;28;48813;-58
2022/04/24 01:17:16;;;;;;;;;16.50;15.50;;;;;15.70;52.85;99200.88;5017150;28;45374;-54
2022/04/24 01:19:42;;;;;;;;;20.25;18.75;;;;;15.59;53.03;99180.75;5016448;28;45381;-54
2022/04/24 01:22:07;;;;;;;;;19.50;17.25;;;;;15.70;53.18;99191.78;5016200;28;45514;-58
2022/04/24 01:24:33;;;;;;;;;19.00;18.00;;;;;15.73;53.22;99202.25;5016841;28;46028;-51
2022/04/24 01:26:58;;;;;;;;;19.00;16.00;;;;;15.66;53.04;99190.69;5016057;28;45372;-54
2022/04/24 01:29:24;;;;;;;;;17.25;16.00;;;;;15.77;52.62;99208.91;5015885;28;45483;-56
2022/04/24 01:31:50;;;;;;;;;22.00;18.00;;;;;15.54;52.45;99178.00;5017408;28;45471;-55
2022/04/24 01:34:16;;;;;;;;;16.75;16.75;;;;;15.48;52.76;99187.44;5015749;28;46657;-56
2022/04/24 01:36:41;;;;;;;;;19.80;18.60;;;;;15.57;52.90;99215.34;5015592;28;45314;-53
2022/04/24 01:39:07;;;;;;;;;19.25;19.25;;;;;15.52;53.26;99215.38;5017049;28;45804;-51
2022/04/24 01:41:32;;;;;;;;;15.00;13.75;;;;;15.48;53.30;99222.56;5017066;28;45334;-52
2022/04/24 01:43:58;;;;;;;;;20.25;19.00;;;;;15.16;53.23;99163.81;5015557;28;46124;-51
2022/04/24 01:46:24;;;;;;;;;16.25;15.50;;;;;15.52;52.88;99215.38;5016752;28;45351;-55
2022/04/24 01:48:49;;;;;;;;;17.75;15.75;;;;;15.54;53.11;99221.44;5017070;28;45402;-54
2022/04/24 01:51:15;;;;;;;;;13.25;13.25;;;;;15.54;53.24;99221.44;5015645;28;45410;-52
2022/04/24 01:53:41;;;;;;;;;15.50;13.50;;;;;15.41;53.62;99222.84;4987613;28;45829;-52
2022/04/24 01:56:07;;;;;;;;;17.50;17.25;;;;;15.42;53.50;99239.16;5015861;28;45463;-55
2022/04/24 01:58:33;;;;;;;;;17.00;17.00;;;;;15.46;53.64;99228.38;5018403;28;45426;-56
2022/04/24 02:00:58;;;;;;;;;16.60;14.80;;;;;15.34;53.69;99227.84;5037263;28;45346;-54
2022/04/24 02:03:26;;;;;;;;;15.75;14.75;;;;;15.28;53.64;99225.13;5036362;28;46237;-56
2022/04/24 02:05:51;;;;;;;;;16.20;16.20;;;;;15.26;53.62;99227.31;5036899;28;45250;-56
2022/04/24 02:08:17;;;;;;;;;16.25;15.25;;;;;15.12;54.12;99229.88;5036993;28;45228;-52
2022/04/24 02:10:42;;;;;;;;;18.00;17.00;;;;;15.18;53.45;99231.50;5037352;28;45883;-57
2022/04/24 02:13:08;;;;;;;;;20.75;15.00;;;;;15.21;53.56;99240.34;5036489;28;45436;-56
2022/04/24 02:15:34;;;;;;;;;19.50;18.00;;;;;15.12;54.05;99238.16;5035205;28;45349;-54
2022/04/24 02:18:00;;;;;;;;;15.50;15.50;;;;;15.15;53.84;99236.75;5036934;28;45309;-55
2022/04/24 02:20:25;;;;;;;;;16.00;14.20;;;;;15.11;53.68;99247.53;5036807;28;45382;-58
2022/04/24 02:22:51;;;;;;;;;16.25;15.50;;;;;15.10;53.47;99245.88;5036398;28;45622;-55
2022/04/24 02:25:17;;;;;;;;;16.00;14.75;;;;;14.80;53.89;99213.59;5036643;28;45377;-56
2022/04/24 02:27:44;;;;;;;;;17.40;14.80;;;;;14.93;53.83;99248.13;5036342;28;45432;-57
2022/04/24 02:30:09;;;;;;;;;12.60;12.20;;;;;14.92;53.75;99247.28;5036926;28;45396;-53
2022/04/24 02:32:35;;;;;;;;;14.00;14.00;;;;;14.81;53.72;99248.38;5036106;28;47380;-54
2022/04/24 02:35:00;;;;;;;;;22.75;22.25;;;;;14.91;53.96;99254.72;5036209;28;45425;-55
2022/04/24 02:37:26;;;;;;;;;13.75;13.50;;;;;14.91;53.34;99251.97;5036129;28;45566;-56
2022/04/24 02:39:52;;;;;;;;;14.25;14.00;;;;;14.87;53.93;99247.28;5034850;28;45465;-54
2022/04/24 02:42:18;;;;;;;;;13.20;13.20;;;;;14.95;53.43;99249.50;5035015;28;46486;-55
2022/04/24 02:44:43;;;;;;;;;18.25;15.50;;;;;14.97;53.59;99240.91;5026276;28;45508;-56
2022/04/24 02:47:09;;;;;;;;;17.25;16.50;;;;;15.09;52.73;99246.16;5015130;28;45564;-51
2022/04/24 02:49:34;;;;;;;;;17.25;15.50;;;;;15.08;53.24;99253.63;5016391;28;45362;-54
2022/04/24 02:52:00;;;;;;;;;20.00;16.50;;;;;15.05;53.29;99251.41;5016113;28;46796;-56
2022/04/24 02:54:25;;;;;;;;;19.50;15.25;;;;;15.07;52.35;99254.72;5014649;28;45296;-57
2022/04/24 02:56:51;;;;;;;;;14.75;14.00;;;;;15.11;52.77;99260.53;5003724;28;45590;-56
2022/04/24 02:59:16;;;;;;;;;16.00;16.00;;;;;15.09;52.49;99251.69;5034516;28;45253;-55
2022/04/24 03:01:42;;;;;;;;;16.00;14.50;;;;;15.03;52.45;99254.47;5034399;28;45431;-55
2022/04/24 03:04:08;;;;;;;;;18.80;17.20;;;;;15.09;52.19;99265.50;5034088;28;45412;-56
2022/04/24 03:06:33;;;;;;;;;15.00;14.00;;;;;14.86;52.39;99220.78;5035789;28;45326;-55
2022/04/24 03:08:59;;;;;;;;;15.00;15.00;;;;;15.09;52.33;99265.50;5034326;28;45412;-51
2022/04/24 03:11:25;;;;;;;;;14.50;14.50;;;;;15.15;52.37;99261.59;5035490;28;45402;-56
2022/04/24 03:13:51;;;;;;;;;16.00;14.20;;;;;15.15;51.80;99259.69;5034049;28;45431;-61
2022/04/24 03:16:16;;;;;;;;;16.75;15.75;;;;;15.14;51.96;99260.78;5035647;28;45372;-59
2022/04/24 03:18:42;;;;;;;;;16.25;15.00;;;;;15.04;52.20;99247.81;5036023;28;45798;-57
2022/04/24 03:21:07;;;;;;;;;14.25;14.25;;;;;14.97;51.75;99241.75;5035267;28;45415;-58
2022/04/24 03:23:33;;;;;;;;;18.75;17.75;;;;;15.13;51.76;99277.66;5035278;28;45336;-57
2022/04/24 03:25:59;;;;;;;;;14.75;13.75;;;;;15.10;51.67;99267.97;5035223;28;45358;-56
2022/04/24 03:28:24;;;;;;;;;16.25;15.00;;;;;15.08;52.17;99284.00;5035580;28;45326;-56
2022/04/24 03:30:49;;;;;;;;;15.50;14.50;;;;;14.99;51.90;99275.44;5034236;28;48873;-55
2022/04/24 03:33:15;;;;;;;;;16.00;16.00;;;;;14.97;51.88;99280.44;5035063;28;45313;-57
2022/04/24 03:35:40;;;;;;;;;17.75;14.00;;;;;14.97;51.99;99285.97;5035607;28;45315;-54
2022/04/24 03:38:06;;;;;;;;;16.50;15.50;;;;;14.73;52.46;99247.00;5034881;28;45349;-56
2022/04/24 03:40:32;;;;;;;;;17.75;14.75;;;;;14.82;51.84;99250.03;5034937;28;46302;-56
2022/04/24 03:42:57;;;;;;;;;14.50;14.00;;;;;14.82;51.62;99261.94;5035112;28;45792;-58
2022/04/24 03:45:23;;;;;;;;;16.00;14.50;;;;;15.01;51.98;99289.81;5023939;28;45267;-54
2022/04/24 03:47:48;;;;;;;;;18.25;17.00;;;;;15.01;51.90;99295.34;5015346;28;45543;-57
2022/04/24 03:50:14;;;;;;;;;12.50;12.50;;;;;15.01;51.88;99291.75;5014549;28;46253;-57
2022/04/24 03:52:39;;;;;;;;;15.25;15.25;;;;;14.81;51.78;99257.50;5015151;28;45383;-56
2022/04/24 03:55:05;;;;;;;;;16.50;14.00;;;;;14.91;52.00;99282.34;5014902;28;45401;-57
2022/04/24 03:57:31;;;;;;;;;16.20;14.60;;;;;14.83;52.28;99288.44;5017856;28;45511;-56
2022/04/24 03:59:57;;;;;;;;;17.75;15.75;;;;;14.84;51.99;99286.50;5017448;28;47979;-55
2022/04/24 04:02:23;;;;;;;;;17.00;15.25;;;;;14.87;51.70;99288.72;5018220;28;45343;-58
2022/04/24 04:04:48;;;;;;;;;20.50;17.50;;;;;14.94;51.75;99288.44;5018801;28;45416;-53
2022/04/24 04:07:14;;;;;;;;;18.00;18.00;;;;;14.98;51.92;99292.28;5018831;28;45506;-55
2022/04/24 04:09:39;;;;;;;;;17.50;16.00;;;;;14.94;51.53;99280.97;5017033;28;46859;-58
2022/04/24 04:12:06;;;;;;;;;17.25;17.00;;;;;14.97;51.81;99294.25;5018522;28;45361;-53
2022/04/24 04:14:31;;;;;;;;;19.20;18.40;;;;;14.98;51.36;99301.44;5000293;28;45328;-55
2022/04/24 04:16:57;;;;;;;;;20.50;20.50;;;;;14.71;51.55;99255.56;5018831;28;45366;-57
2022/04/24 04:19:23;;;;;;;;;22.50;19.75;;;;;14.93;51.56;99298.66;5016683;28;45736;-57
2022/04/24 04:21:48;;;;;;;;;18.25;16.75;;;;;14.88;51.98;99298.66;5018475;28;45383;-56
2022/04/24 04:24:14;;;;;;;;;17.25;17.25;;;;;14.68;51.68;99271.84;5018086;28;45366;-56
2022/04/24 04:26:39;;;;;;;;;21.00;19.75;;;;;14.78;51.63;99293.94;5018293;28;45637;-56
2022/04/24 04:29:05;;;;;;;;;17.00;17.00;;;;;14.82;51.83;99310.81;5018001;28;46887;-57
2022/04/24 04:31:30;;;;;;;;;20.50;18.50;;;;;14.80;51.74;99313.84;5016362;28;45400;-57
2022/04/24 04:33:56;;;;;;;;;20.50;18.75;;;;;14.58;51.78;99290.03;5017088;28;45277;-56
2022/04/24 04:36:21;;;;;;;;;23.25;20.75;;;;;14.56;52.41;99289.50;5018290;28;45766;-53
2022/04/24 04:38:47;;;;;;;;;20.25;19.00;;;;;14.67;52.09;99320.72;5017764;28;46391;-57
2022/04/24 04:41:12;;;;;;;;;22.00;21.00;;;;;14.72;52.01;99312.44;5018139;28;45355;-53
2022/04/24 04:43:38;;;;;;;;;25.50;22.75;;;;;14.60;52.16;99326.50;5016524;28;45448;-56
2022/04/24 04:46:04;;;;;;;;;17.75;17.75;;;;;14.19;52.84;99262.94;5016472;28;45318;-55
2022/04/24 04:48:29;;;;;;;;;18.25;16.50;;;;;14.63;52.70;99319.63;5016618;28;46037;-57
2022/04/24 04:50:55;;;;;;;;;23.00;18.50;;;;;14.64;52.58;99321.25;5017546;28;45316;-56
2022/04/24 04:53:21;;;;;;;;;22.50;20.00;;;;;14.71;52.67;99327.34;5018135;28;45365;-54
2022/04/24 04:55:47;;;;;;;;;19.00;18.40;;;;;14.70;52.97;99331.22;5017770;28;45254;-56
2022/04/24 04:58:13;;;;;;;;;21.00;17.75;;;;;14.74;53.18;99335.09;5017411;28;46309;-57
2022/04/24 05:00:39;;;;;;;;;21.75;19.00;;;;;14.67;53.04;99325.41;5017387;28;45419;-56
2022/04/24 05:03:04;;;;;;;;;16.00;14.75;;;;;14.72;53.39;99339.22;5017631;28;45334;-57
2022/04/24 05:05:29;;;;;;;;;19.75;17.50;;;;;14.74;53.36;99342.56;5017774;28;45494;-55
2022/04/24 05:07:55;;;;;;;;;20.25;19.50;;;;;14.66;53.62;99341.13;5016029;28;46680;-58
2022/04/24 05:10:21;;;;;;;;;17.75;17.50;;;;;14.74;53.80;99353.63;5017530;28;45812;-54
2022/04/24 05:12:46;;;;;;;;;13.00;11.50;;;;;14.79;54.14;99353.63;5016229;28;45390;-56
2022/04/24 05:15:14;;;;;;;;;18.50;17.00;;;;;14.79;53.82;99348.13;5016348;28;45504;-55
2022/04/24 05:17:40;;;;;;;;;16.80;15.40;;;;;14.79;53.63;99367.44;5017346;28;46620;-58
2022/04/24 05:20:07;;;;;;;;;18.40;16.80;;;;;14.82;53.58;99368.81;5017155;28;45377;-57
2022/04/24 05:22:32;;;;;;;;;19.40;18.00;;;;;14.83;53.73;99363.00;5017185;28;45256;-55
2022/04/24 05:24:58;;;;;;;;;18.75;17.25;;;;;14.77;53.96;99367.72;5017298;28;45388;-56
2022/04/24 05:27:23;;;;;;;;;26.25;18.25;;;;;14.35;54.81;99297.75;5017043;28;46501;-55
2022/04/24 05:29:49;;;;;;;;;18.25;18.25;;;;;14.62;54.59;99342.81;5017120;28;45396;-53
2022/04/24 05:32:15;;;;;;;;;21.75;20.00;;;;;14.81;54.69;99370.75;5017537;28;45367;-56
2022/04/24 05:34:40;;;;;;;;;22.80;20.80;;;;;14.77;54.73;99372.38;5017398;28;45478;-54
2022/04/24 05:37:06;;;;;;;;;23.75;19.75;;;;;14.78;54.32;99382.31;5016954;28;46549;-55
2022/04/24 05:39:32;;;;;;;;;15.00;15.00;;;;;14.75;54.67;99378.22;5016890;28;45397;-55
2022/04/24 05:41:57;;;;;;;;;22.00;22.00;;;;;14.70;54.50;99389.22;5017016;28;45770;-56
2022/04/24 05:44:23;;;;;;;;;18.75;17.50;;;;;14.73;54.14;99396.94;5017105;28;45294;-54
2022/04/24 05:46:48;;;;;;;;;19.25;17.25;;;;;14.70;54.26;99389.22;5015397;28;45335;-55
2022/04/24 05:49:14;;;;;;;;;18.25;18.25;;;;;14.57;54.77;99373.97;4999080;28;45859;-53
2022/04/24 05:51:40;;;;;;;;;20.50;19.25;;;;;14.70;54.58;99388.38;5032972;28;45344;-58
2022/04/24 05:54:05;;;;;;;;;20.25;18.00;;;;;14.49;54.50;99347.75;5034181;28;45330;-55
2022/04/24 05:56:31;;;;;;;;;23.00;22.00;;;;;14.69;53.82;99372.91;5033668;28;47267;-55
2022/04/24 05:58:56;;;;;;;;;24.00;23.00;;;;;14.70;53.84;99389.22;5036993;28;45452;-55
2022/04/24 06:01:22;;;;;;;;;21.75;20.75;;;;;14.71;53.92;99396.38;5036926;28;45402;-56
2022/04/24 06:03:48;;;;;;;;;21.25;20.25;;;;;14.72;53.90;99392.50;5037161;28;45373;-56
2022/04/24 06:06:13;;;;;;;;;23.40;19.60;;;;;14.75;53.92;99393.94;5036260;28;46036;-57
2022/04/24 06:08:39;;;;;;;;;25.00;22.75;;;;;14.53;53.98;99367.34;5035543;28;45820;-53
2022/04/24 06:11:05;;;;;;;;;22.50;18.25;;;;;14.75;54.02;99404.97;5036799;28;45347;-60
2022/04/24 06:13:30;;;;;;;;;21.50;20.00;;;;;14.73;53.68;99409.94;5036908;28;45459;-56
2022/04/24 06:15:57;;;;;;;;;25.00;23.25;;;;;14.65;53.84;99397.47;5036872;28;45461;-55
2022/04/24 06:18:29;;;;;;;;;26.60;22.60;;;;;14.17;54.11;99336.88;5035927;28;45372;-55
2022/04/24 06:20:55;;;;;;;;;26.40;24.00;;;;;14.69;53.67;99406.88;5035539;28;45345;-57
2022/04/24 06:23:20;;;;;;;;;20.75;19.50;;;;;14.44;53.73;99364.28;5036688;28;45512;-59
2022/04/24 06:25:46;;;;;;;;;25.75;23.00;;;;;14.68;53.35;99390.59;5035362;28;46692;-55
2022/04/24 06:28:11;;;;;;;;;23.75;23.25;;;;;14.78;52.97;99412.72;5034978;28;45416;-56
2022/04/24 06:30:40;;;;;;;;;26.25;25.00;;;;;14.75;53.11;99414.13;5036723;28;45697;-53
2022/04/24 06:33:09;;;;;;;;;24.00;22.20;;;;;14.74;53.30;99426.22;5036679;28;45531;-55
2022/04/24 06:35:34;;;;;;;;;31.20;25.60;;;;;14.72;53.39;99422.91;5036264;28;46919;-54
2022/04/24 06:38:00;;;;;;;;;24.50;19.00;;;;;14.69;53.47;99425.38;5035055;28;45337;-54
2022/04/24 06:40:26;;;;;;;;;22.50;22.50;;;;;14.55;53.57;99405.72;5036012;28;45373;-57
2022/04/24 06:42:52;;;;;;;;;26.25;22.25;;;;;14.52;53.03;99411.78;5036389;28;45270;-56
2022/04/24 06:45:27;;;;;;;;;23.80;23.40;;;;;14.63;53.20;99413.50;5025533;28;45888;-53
2022/04/24 06:48:04;;;;;;;;;18.80;18.80;;;;;14.49;53.07;99402.97;5015861;28;45518;-55
2022/04/24 06:50:30;;;;;;;;;28.00;25.60;;;;;14.44;53.29;99402.94;5015685;28;45393;-56
2022/04/24 06:53:02;;;;;;;;;25.50;24.00;;;;;14.45;53.38;99434.97;5014987;28;45386;-57
2022/04/24 06:55:31;;;;;;;;;26.00;22.40;;;;;14.62;53.59;99437.50;4992968;28;46472;-56
2022/04/24 06:57:57;;;;;;;;;29.40;26.80;;;;;14.74;53.35;99437.28;5015804;28;45323;-58
2022/04/24 07:00:24;;;;;;;;;29.00;25.50;;;;;14.83;52.79;99437.59;5014739;28;45437;-55
2022/04/24 07:02:49;;;;;;;;;30.40;26.80;;;;;14.80;52.91;99431.78;5015829;28;45400;-56
2022/04/24 07:05:15;;;;;;;;;27.25;23.75;;;;;14.80;52.44;99432.63;5016076;28;45550;-58
2022/04/24 07:07:41;;;;;;;;;25.75;23.75;;;;;14.84;52.33;99435.66;5015535;28;45443;-56
2022/04/24 07:10:08;;;;;;;;;30.25;26.50;;;;;14.85;52.20;99438.16;5014912;28;45250;-55
2022/04/24 07:12:50;;;;;;;;;35.40;29.80;;;;;14.74;52.41;99429.00;5015592;28;45502;-54
2022/04/24 07:15:15;;;;;;;;;33.80;30.40;;;;;14.85;52.13;99437.31;5015974;28;46118;-53
2022/04/24 07:17:44;;;;;;;;;27.50;26.75;;;;;14.58;52.03;99399.66;5014043;28;45485;-54
2022/04/24 07:20:11;;;;;;;;;32.40;29.20;;;;;14.87;52.40;99447.00;5015939;28;45275;-53
2022/04/24 07:22:58;;;;;;;;;30.60;29.40;;;;;14.95;52.23;99451.16;5015858;28;45574;-56
2022/04/24 07:25:26;;;;;;;;;33.60;31.00;;;;;14.98;52.06;99447.00;5015616;28;46425;-56
2022/04/24 07:27:52;;;;;;;;;32.80;29.60;;;;;14.98;51.74;99431.28;5015500;28;45384;-57
2022/04/24 07:30:18;;;;;;;;;35.75;32.50;;;;;15.15;51.24;99457.81;4934690;28;45379;-54
2022/04/24 07:32:45;;;;;;;;;40.40;32.20;;;;;15.25;51.38;99463.38;5014473;28;45334;-59
2022/04/24 07:35:16;;;;;;;;;34.60;32.00;;;;;15.26;51.25;99464.19;5015142;28;46369;-57
2022/04/24 07:37:42;;;;;;;;;35.80;30.00;;;;;15.09;50.63;99436.81;5047005;28;45359;-54
2022/04/24 07:40:12;;;;;;;;;40.25;34.75;;;;;15.07;50.92;99441.78;5014533;28;45433;-53
2022/04/24 07:42:46;;;;;;;;;41.40;36.60;;;;;15.25;50.71;99460.59;5015354;28;45313;-49
2022/04/24 07:45:20;;;;;;;;;31.20;28.60;;;;;15.27;50.80;99461.16;5013827;28;48445;-49
2022/04/24 07:47:46;;;;;;;;;33.20;31.40;;;;;15.33;50.65;99467.53;5013587;28;45642;-51
2022/04/24 07:50:15;;;;;;;;;39.20;34.20;;;;;15.37;50.36;99462.28;5014931;28;45585;-54
2022/04/24 07:52:40;;;;;;;;;39.60;32.40;;;;;15.22;50.47;99432.69;5028315;28;45584;-54
2022/04/24 07:55:06;;;;;;;;;37.00;32.50;;;;;15.40;50.17;99456.19;5013532;28;45423;-51
2022/04/24 07:57:32;;;;;;;;;38.75;32.75;;;;;15.46;50.12;99468.91;4993709;28;45464;-51
2022/04/24 07:59:58;;;;;;;;;37.25;33.00;;;;;15.41;50.09;99469.72;5013844;28;45331;-55
2022/04/24 08:02:23;;;;;;;;;40.20;34.00;;;;;15.45;50.18;99481.91;5015387;28;45425;-54
2022/04/24 08:04:49;;;;;;;;;44.50;38.00;;;;;15.44;49.87;99469.16;5013079;28;45625;-54
2022/04/24 08:07:15;;;;;;;;;38.50;33.50;;;;;15.36;50.55;99471.69;5014720;28;45365;-51
2022/04/24 08:09:42;;;;;;;;;31.50;30.50;;;;;15.00;50.60;99401.44;5014968;28;45405;-49
2022/04/24 08:12:08;;;;;;;;;32.60;31.20;;;;;15.30;50.14;99434.88;5015107;28;45271;-49
2022/04/24 08:14:33;;;;;;;;;39.20;33.80;;;;;15.50;50.21;99485.78;5014539;28;47863;-53
2022/04/24 08:16:59;;;;;;;;;43.25;35.75;;;;;15.43;50.68;99484.09;5012234;28;45417;-55
2022/04/24 08:19:24;;;;;;;;;30.25;26.50;;;;;15.43;50.26;99486.88;5014044;28;45409;-51
2022/04/24 08:21:50;;;;;;;;;38.25;34.00;;;;;15.49;50.16;99479.44;5014980;28;45369;-57
2022/04/24 08:24:15;;;;;;;;;39.25;35.00;;;;;15.59;50.52;99487.72;5014910;28;46084;-58
2022/04/24 08:26:41;;;;;;;;;41.00;34.75;;;;;15.65;49.95;99487.72;5014685;28;45388;-55
2022/04/24 08:29:06;;;;;;;;;41.75;35.75;;;;;15.72;50.31;99493.78;5013558;28;45451;-53
2022/04/24 08:31:32;;;;;;;;;40.50;32.50;;;;;15.62;50.18;99477.22;5014892;28;45322;-56
2022/04/24 08:33:57;;;;;;;;;42.75;34.00;;;;;15.70;50.33;99491.31;5014672;28;46257;-60
2022/04/24 08:36:26;;;;;;;;;46.50;37.75;;;;;15.67;49.63;99488.25;5014851;28;45294;-60
2022/04/24 08:38:51;;;;;;;;;28.80;26.20;;;;;15.59;49.74;99481.38;5014472;28;45419;-61
2022/04/24 08:41:19;;;;;;;;;41.75;35.00;;;;;15.64;49.33;99478.56;5012364;28;45455;-53
2022/04/24 08:43:44;;;;;;;;;34.00;30.20;;;;;15.69;49.42;99477.78;5016275;28;46157;-53
2022/04/24 08:46:09;;;;;;;;;34.00;31.00;;;;;15.82;49.18;99484.66;4999859;28;45455;-56
2022/04/24 08:48:35;;;;;;;;;40.75;33.25;;;;;15.68;49.65;99468.63;5016914;28;45474;-57
2022/04/24 08:51:02;;;;;;;;;36.00;32.50;;;;;15.69;50.74;99491.59;5022475;27;45539;-51
2022/04/24 08:53:29;;;;;;;;;41.00;33.80;;;;;15.61;50.67;99464.47;5047707;28;46358;-54
2022/04/24 08:55:55;;;;;;;;;42.60;34.00;;;;;15.92;50.04;99494.91;5054381;28;45493;-51
2022/04/24 08:58:20;;;;;;;;;35.75;31.00;;;;;15.90;49.52;99480.50;5056179;28;45331;-53
2022/04/24 09:00:46;;;;;;;;;40.00;33.50;;;;;16.06;49.50;99497.97;5058152;28;45309;-53
2022/04/24 09:03:11;;;;;;;;;39.75;34.50;;;;;16.05;48.77;99469.44;5039414;28;46887;-53
2022/04/24 09:05:37;;;;;;;;;41.00;33.00;;;;;16.30;48.75;99498.19;5054696;28;45469;-54
2022/04/24 09:08:09;;;;;;;;;39.50;34.00;;;;;16.20;48.63;99476.06;5057779;28;45890;-54
2022/04/24 09:10:54;;;;;;;;;37.20;32.80;;;;;16.44;48.19;99497.59;5057994;28;45277;-57
2022/04/24 09:13:31;;;;;;;;;37.20;32.00;;;;;16.49;47.96;99503.13;5056878;28;46576;-50
2022/04/24 09:15:57;;;;;;;;;31.60;25.60;;;;;16.37;48.02;99484.88;5056202;28;45548;-49
2022/04/24 09:18:35;;;;;;;;;32.20;29.40;;;;;16.63;48.06;99495.03;5055151;28;45437;-56
2022/04/24 09:21:00;;;;;;;;;31.80;31.60;;;;;16.62;47.65;99505.28;5029090;28;45421;-53
2022/04/24 09:23:36;;;;;;;;;40.25;34.00;;;;;16.58;47.03;99489.50;5026912;28;45696;-54
2022/04/24 09:26:01;;;;;;;;;37.60;32.60;;;;;16.65;46.81;99490.84;5036932;28;45448;-53
2022/04/24 09:28:38;;;;;;;;;37.50;34.00;;;;;16.84;46.93;99512.38;5011528;27;45302;-54
2022/04/24 09:31:04;;;;;;;;;36.60;29.20;;;;;16.84;47.27;99514.31;5035027;28;45406;-57
2022/04/24 09:33:39;;;;;;;;;38.80;33.40;;;;;16.90;46.73;99514.03;5033646;28;45847;-61
2022/04/24 09:36:06;;;;;;;;;39.40;34.60;;;;;16.99;46.82;99517.03;5029033;28;45323;-52
2022/04/24 09:38:38;;;;;;;;;36.20;32.60;;;;;17.06;46.63;99528.66;5021294;28;45487;-54
2022/04/24 09:41:03;;;;;;;;;31.00;29.80;;;;;17.16;45.92;99525.00;5007057;28;45472;-49
2022/04/24 09:43:29;;;;;;;;;37.50;31.25;;;;;17.27;45.62;99514.69;5055578;28;45403;-49
2022/04/24 09:45:54;;;;;;;;;40.50;33.50;;;;;17.43;45.47;99514.56;5048877;28;45418;-57
2022/04/24 09:48:20;;;;;;;;;36.00;32.75;;;;;17.41;44.98;99491.84;5035277;28;45394;-52
2022/04/24 09:50:47;;;;;;;;;33.80;32.80;;;;;17.52;45.03;99500.94;5016541;28;45648;-56
2022/04/24 09:53:13;;;;;;;;;31.00;29.60;;;;;17.66;44.68;99512.19;5017036;28;46801;-53
2022/04/24 09:55:40;;;;;;;;;35.40;31.20;;;;;17.70;44.50;99527.97;5034308;28;45376;-49
2022/04/24 09:58:07;;;;;;;;;34.40;31.00;;;;;17.68;44.80;99523.81;5035822;28;45535;-55
2022/04/24 10:00:33;;;;;;;;;33.80;30.20;;;;;17.80;45.00;99540.09;5035818;28;45617;-52
2022/04/24 10:02:59;;;;;;;;;26.40;23.20;;;;;17.79;44.66;99532.91;5034908;28;46158;-55
2022/04/24 10:05:28;;;;;;;;;38.50;33.50;;;;;17.37;44.53;99461.09;5032566;28;45706;-50
2022/04/24 10:07:53;;;;;;;;;30.40;29.20;;;;;18.01;44.59;99540.75;5017792;28;46013;-53
2022/04/24 10:10:19;;;;;;;;;29.50;26.75;;;;;18.17;43.99;99533.16;5013712;28;45466;-57
2022/04/24 10:12:48;;;;;;;;;33.75;30.25;;;;;18.23;42.96;99545.03;5014491;28;46271;-51
2022/04/24 10:15:16;;;;;;;;;39.60;33.00;;;;;18.17;42.44;99547.03;5012931;28;45437;-51
2022/04/24 10:18:01;;;;;;;;;30.40;30.20;;;;;18.19;42.36;99538.41;4992196;28;45506;-55
2022/04/24 10:21:06;;;;;;;;;32.60;30.40;;;;;18.31;42.61;99552.75;4992413;28;45629;-53
2022/04/24 10:23:36;;;;;;;;;33.00;29.00;;;;;18.26;42.34;99545.25;5014393;28;46723;-55
2022/04/24 10:26:03;;;;;;;;;33.20;31.40;;;;;18.31;41.68;99563.00;4990291;28;45724;-50
2022/04/24 10:28:38;;;;;;;;;30.60;29.80;;;;;18.01;42.15;99526.88;4995049;28;45830;-50
2022/04/24 10:31:07;;;;;;;;;34.20;31.40;;;;;18.27;42.24;99560.00;5027461;28;45411;-50
2022/04/24 10:33:34;;;;;;;;;40.00;32.20;;;;;18.21;41.96;99550.88;5035970;28;46003;-49
2022/04/24 10:36:15;;;;;;;;;36.40;30.40;;;;;18.36;41.93;99572.09;5035823;28;45429;-54
2022/04/24 10:38:52;;;;;;;;;34.00;30.20;;;;;18.50;41.99;99571.41;5034691;28;45484;-55
2022/04/24 10:41:23;;;;;;;;;36.40;31.20;;;;;18.52;42.28;99564.44;5033862;28;45981;-53
2022/04/24 10:43:57;;;;;;;;;37.80;30.80;;;;;18.59;42.44;99588.28;5015687;28;45942;-54
2022/04/24 10:46:29;;;;;;;;;28.40;26.80;;;;;18.62;42.25;99579.38;5015828;28;45295;-54
2022/04/24 10:49:04;;;;;;;;;36.20;30.40;;;;;18.68;42.32;99586.53;5014293;28;45511;-52
2022/04/24 10:51:30;;;;;;;;;34.00;26.20;;;;;18.74;42.77;99577.00;5014694;28;45423;-54
2022/04/24 10:54:28;;;;;;;;;27.40;26.20;;;;;18.99;43.04;99588.13;5013415;28;46814;-54
2022/04/24 10:56:54;;;;;;;;;29.40;29.20;;;;;19.12;43.07;99581.03;5015662;28;45767;-51
2022/04/24 10:59:21;;;;;;;;;31.25;29.75;;;;;19.25;42.13;99594.19;5016086;28;45136;-51
2022/04/24 11:01:54;;;;;;;;;32.80;31.60;;;;;19.19;42.19;99603.72;5015389;28;45822;-53
2022/04/24 11:04:20;;;;;;;;;28.40;27.80;;;;;19.14;42.39;99595.44;5015770;28;45826;-52
2022/04/24 11:07:00;;;;;;;;;37.60;32.60;;;;;18.95;42.22;99566.47;5015684;28;45280;-51
2022/04/24 11:09:33;;;;;;;;;36.00;32.40;;;;;19.17;42.51;99592.09;5016210;28;45443;-53
2022/04/24 11:12:01;;;;;;;;;30.00;27.80;;;;;19.23;41.84;99590.91;5016204;28;45590;-52
2022/04/24 11:14:27;;;;;;;;;32.00;28.40;;;;;19.27;41.83;99591.13;5015675;28;46558;-54
2022/04/24 11:16:54;;;;;;;;;31.80;27.80;;;;;19.26;41.37;99575.56;5015960;28;45332;-49